createdAt,value
2022-10-06T00:01:10.671Z,100332.00
2022-10-06T00:03:39.777Z,100331.16
2022-10-06T00:06:08.633Z,100327.69
2022-10-06T00:08:38.407Z,100326.81
2022-10-06T00:11:08.275Z,100323.38
2022-10-06T00:13:36.438Z,100321.50
2022-10-06T00:16:10.855Z,100322.41
2022-10-06T00:18:39.077Z,100322.47
2022-10-06T00:21:06.845Z,100317.22
2022-10-06T00:23:35.646Z,100320.69
2022-10-06T00:26:04.056Z,100311.13
2022-10-06T00:28:32.421Z,100312.00
2022-10-06T00:31:03.666Z,100313.50
2022-10-06T00:33:31.805Z,100318.97
2022-10-06T00:36:01.126Z,100310.28
2022-10-06T00:38:29.467Z,100315.47
2022-10-06T00:40:57.925Z,100304.19
2022-10-06T00:43:54.749Z,100306.78
2022-10-06T00:46:38.055Z,100310.25
2022-10-06T00:49:12.008Z,100310.09
2022-10-06T00:51:45.248Z,100310.25
2022-10-06T00:54:13.257Z,100301.53
2022-10-06T00:56:41.636Z,100304.13
2022-10-06T00:59:14.415Z,100308.44
2022-10-06T01:01:48.825Z,100314.19
2022-10-06T01:04:18.045Z,100310.91
2022-10-06T01:06:52.345Z,100310.12
2022-10-06T01:09:21.116Z,100311.03
2022-10-06T01:11:51.456Z,100307.63
2022-10-06T01:14:19.955Z,100307.56
2022-10-06T01:16:52.174Z,100304.94
2022-10-06T01:19:47.526Z,100302.28
2022-10-06T01:22:17.496Z,100309.13
2022-10-06T01:24:46.875Z,100311.78
2022-10-06T01:27:15.679Z,100313.44
2022-10-06T01:29:43.686Z,100313.44
2022-10-06T01:32:12.012Z,100309.75
2022-10-06T01:34:39.746Z,100311.47
2022-10-06T01:37:07.517Z,100309.09
2022-10-06T01:39:36.237Z,100317.50
2022-10-06T01:42:04.175Z,100322.69
2022-10-06T01:44:32.746Z,100316.69
2022-10-06T01:47:00.775Z,100321.03
2022-10-06T01:49:28.588Z,100319.16
2022-10-06T01:51:56.366Z,100321.81
2022-10-06T01:54:24.566Z,100326.13
2022-10-06T01:56:52.400Z,100332.09
2022-10-06T01:59:20.367Z,100321.78
2022-10-06T02:01:48.685Z,100333.31
2022-10-06T02:04:17.261Z,100328.94
2022-10-06T02:06:45.163Z,100331.13
2022-10-06T02:09:13.005Z,100328.34
2022-10-06T02:11:41.342Z,100333.66
2022-10-06T02:14:09.086Z,100327.59
2022-10-06T02:16:36.924Z,100329.28
2022-10-06T02:19:05.237Z,100336.22
2022-10-06T02:21:33.474Z,100334.59
2022-10-06T02:24:01.381Z,100337.06
2022-10-06T02:26:29.226Z,100331.87
2022-10-06T02:28:57.480Z,100337.88
2022-10-06T02:31:25.553Z,100341.16
2022-10-06T02:33:53.466Z,100339.66
2022-10-06T02:36:22.749Z,100339.50
2022-10-06T02:38:50.721Z,100339.44
2022-10-06T02:41:18.974Z,100335.09
2022-10-06T02:43:47.817Z,100339.47
2022-10-06T02:46:15.851Z,100332.53
2022-10-06T02:48:45.186Z,100339.41
2022-10-06T02:51:16.110Z,100338.56
2022-10-06T02:53:45.868Z,100342.81
2022-10-06T02:56:24.416Z,100335.84
2022-10-06T02:58:53.305Z,100335.94
2022-10-06T03:01:26.926Z,100330.53
2022-10-06T03:03:55.367Z,100336.16
2022-10-06T03:06:25.948Z,100342.34
2022-10-06T03:09:07.828Z,100340.62
2022-10-06T03:11:41.805Z,100338.84
2022-10-06T03:14:10.146Z,100340.81
2022-10-06T03:16:40.685Z,100338.53
2022-10-06T03:19:10.565Z,100344.59
2022-10-06T03:21:41.850Z,100346.00
2022-10-06T03:24:10.696Z,100348.84
2022-10-06T03:26:45.109Z,100350.50
2022-10-06T03:29:14.277Z,100348.66
2022-10-06T03:31:43.592Z,100356.44
2022-10-06T03:34:15.699Z,100353.78
2022-10-06T03:36:44.821Z,100350.69
2022-10-06T03:39:12.656Z,100349.25
2022-10-06T03:41:40.627Z,100346.88
2022-10-06T03:44:09.297Z,100350.41
2022-10-06T03:46:37.841Z,100340.09
2022-10-06T03:49:05.761Z,100343.38
2022-10-06T03:51:39.445Z,100345.03
2022-10-06T03:54:10.956Z,100341.38
2022-10-06T03:56:41.338Z,100346.97
2022-10-06T03:59:12.234Z,100346.78
2022-10-06T04:01:45.732Z,100344.50
2022-10-06T04:04:14.518Z,100344.25
2022-10-06T04:06:44.277Z,100350.25
2022-10-06T04:09:15.622Z,100349.50
2022-10-06T04:11:45.151Z,100353.69
2022-10-06T04:14:15.560Z,100353.62
2022-10-06T04:16:46.243Z,100354.38
2022-10-06T04:19:16.236Z,100353.47
2022-10-06T04:21:46.338Z,100365.28
2022-10-06T04:24:17.317Z,100364.78
2022-10-06T04:26:46.808Z,100354.53
2022-10-06T04:29:15.286Z,100362.47
2022-10-06T04:31:44.792Z,100356.97
2022-10-06T04:34:13.848Z,100358.03
2022-10-06T04:36:42.766Z,100355.63
2022-10-06T04:39:12.510Z,100354.63
2022-10-06T04:41:41.857Z,100356.91
2022-10-06T04:44:10.589Z,100356.06
2022-10-06T04:46:44.080Z,100348.63
2022-10-06T04:49:19.479Z,100350.78
2022-10-06T04:51:51.297Z,100351.69
2022-10-06T04:54:19.743Z,100352.78
2022-10-06T04:56:47.816Z,100354.44
2022-10-06T04:59:16.241Z,100354.72
2022-10-06T05:01:45.617Z,100360.13
2022-10-06T05:04:13.752Z,100358.25
2022-10-06T05:06:42.616Z,100361.69
2022-10-06T05:09:13.651Z,100348.78
2022-10-06T05:11:41.855Z,100350.13
2022-10-06T05:14:10.778Z,100352.53
2022-10-06T05:16:38.836Z,100351.78
2022-10-06T05:19:08.401Z,100347.72
2022-10-06T05:21:37.894Z,100352.91
2022-10-06T05:24:07.226Z,100361.06
2022-10-06T05:26:36.447Z,100362.94
2022-10-06T05:29:05.175Z,100359.63
2022-10-06T05:31:38.976Z,100365.59
2022-10-06T05:34:07.701Z,100364.91
2022-10-06T05:36:36.081Z,100371.25
2022-10-06T05:39:05.257Z,100361.78
2022-10-06T05:41:35.047Z,100364.25
2022-10-06T05:44:03.966Z,100363.66
2022-10-06T05:46:33.237Z,100364.44
2022-10-06T05:49:04.890Z,100366.31
2022-10-06T05:51:34.697Z,100365.53
2022-10-06T05:54:03.368Z,100371.44
2022-10-06T05:56:33.084Z,100372.19
2022-10-06T05:59:02.659Z,100364.72
2022-10-06T06:01:35.828Z,100371.97
2022-10-06T06:04:07.847Z,100378.56
2022-10-06T06:06:39.009Z,100379.94
2022-10-06T06:09:19.648Z,100384.97
2022-10-06T06:11:50.257Z,100388.66
2022-10-06T06:14:40.558Z,100392.66
2022-10-06T06:17:08.638Z,100389.22
2022-10-06T06:19:36.688Z,100391.25
2022-10-06T06:22:04.627Z,100399.87
2022-10-06T06:24:32.829Z,100406.69
2022-10-06T06:27:00.930Z,100413.59
2022-10-06T06:29:29.087Z,100413.63
2022-10-06T06:31:56.986Z,100418.84
2022-10-06T06:34:25.759Z,100422.41
2022-10-06T06:36:55.379Z,100420.78
2022-10-06T06:39:23.197Z,100427.75
2022-10-06T06:41:51.597Z,100430.41
2022-10-06T06:44:20.627Z,100440.87
2022-10-06T06:46:49.936Z,100433.91
2022-10-06T06:49:20.238Z,100427.66
2022-10-06T06:51:52.814Z,100428.50
2022-10-06T06:54:21.159Z,100436.28
2022-10-06T06:56:49.979Z,100433.47
2022-10-06T06:59:18.523Z,100443.00
2022-10-06T07:01:48.321Z,100446.41
2022-10-06T07:04:17.918Z,100443.81
2022-10-06T07:07:13.011Z,100447.47
2022-10-06T07:09:42.028Z,100461.72
2022-10-06T07:12:11.698Z,100449.84
2022-10-06T07:14:59.726Z,100455.47
2022-10-06T07:17:47.407Z,100456.84
2022-10-06T07:20:34.149Z,100459.25
2022-10-06T07:23:20.783Z,100457.31
2022-10-06T07:25:48.768Z,100462.72
2022-10-06T07:28:17.396Z,100460.97
2022-10-06T07:30:45.520Z,100465.94
2022-10-06T07:33:14.808Z,100464.47
2022-10-06T07:35:43.250Z,100460.63
2022-10-06T07:38:11.228Z,100461.84
2022-10-06T07:40:46.329Z,100461.66
2022-10-06T07:43:24.370Z,100463.31
2022-10-06T07:45:52.297Z,100459.12
2022-10-06T07:48:22.513Z,100464.22
2022-10-06T07:50:53.337Z,100472.41
2022-10-06T07:53:21.990Z,100471.59
2022-10-06T07:55:50.768Z,100474.66
2022-10-06T07:58:20.704Z,100479.28
2022-10-06T08:00:49.144Z,100474.28
2022-10-06T08:03:18.441Z,100479.09
2022-10-06T08:05:48.722Z,100479.19
2022-10-06T08:08:17.194Z,100474.44
2022-10-06T08:10:55.468Z,100480.97
2022-10-06T08:13:24.277Z,100470.66
2022-10-06T08:15:52.655Z,100475.31
2022-10-06T08:18:44.313Z,100474.34
2022-10-06T08:21:15.251Z,100480.81
2022-10-06T08:23:44.379Z,100477.59
2022-10-06T08:28:44.879Z,100481.31
2022-10-06T08:31:15.903Z,100485.09
2022-10-06T08:33:44.809Z,100483.53
2022-10-06T08:36:17.465Z,100483.78
2022-10-06T08:38:52.135Z,100475.41
2022-10-06T08:41:24.258Z,100478.75
2022-10-06T08:43:56.654Z,100482.81
2022-10-06T08:46:26.698Z,100489.19
2022-10-06T08:48:54.909Z,100483.22
2022-10-06T08:51:25.425Z,100485.47
2022-10-06T08:54:08.599Z,100489.69
2022-10-06T08:56:48.731Z,100487.34
2022-10-06T08:59:16.635Z,100483.38
2022-10-06T09:01:49.923Z,100482.28
2022-10-06T09:04:28.870Z,100484.87
2022-10-06T09:07:00.516Z,100481.63
2022-10-06T09:09:41.057Z,100481.63
2022-10-06T09:12:31.669Z,100482.44
2022-10-06T09:15:12.394Z,100480.03
2022-10-06T09:18:10.963Z,100483.94
2022-10-06T09:20:44.120Z,100486.78
2022-10-06T09:23:17.740Z,100490.97
2022-10-06T09:25:45.558Z,100494.53
2022-10-06T09:28:16.015Z,100498.59
2022-10-06T09:30:44.052Z,100490.38
2022-10-06T09:33:21.229Z,100488.37
2022-10-06T09:36:12.691Z,100493.25
2022-10-06T09:38:57.853Z,100496.31
2022-10-06T09:41:32.458Z,100490.47
2022-10-06T09:44:24.957Z,100493.81
2022-10-06T09:46:53.428Z,100499.31
2022-10-06T09:49:26.167Z,100503.28
2022-10-06T09:52:15.286Z,100506.16
2022-10-06T09:54:44.109Z,100500.88
2022-10-06T09:57:18.517Z,100510.75
2022-10-06T09:59:48.693Z,100505.56
2022-10-06T10:02:37.723Z,100510.78
2022-10-06T10:05:18.006Z,100509.13
2022-10-06T10:07:48.368Z,100506.78
2022-10-06T10:10:19.866Z,100502.81
2022-10-06T10:12:55.007Z,100496.66
2022-10-06T10:15:23.238Z,100496.53
2022-10-06T10:18:13.075Z,100506.03
2022-10-06T10:20:51.124Z,100497.91
2022-10-06T10:23:31.107Z,100498.94
2022-10-06T10:26:15.596Z,100496.59
2022-10-06T10:29:15.267Z,100497.53
2022-10-06T10:32:06.451Z,100489.69
2022-10-06T10:34:38.395Z,100496.28
2022-10-06T10:37:19.037Z,100484.03
2022-10-06T10:40:25.577Z,100485.50
2022-10-06T10:43:01.319Z,100484.22
2022-10-06T10:45:34.340Z,100488.19
2022-10-06T10:48:07.616Z,100484.19
2022-10-06T10:50:43.258Z,100486.78
2022-10-06T10:53:20.941Z,100488.22
2022-10-06T10:55:49.217Z,100493.84
2022-10-06T10:58:17.267Z,100486.78
2022-10-06T11:00:47.638Z,100484.03
2022-10-06T11:03:15.527Z,100490.31
2022-10-06T11:05:50.975Z,100475.09
2022-10-06T11:08:19.554Z,100486.34
2022-10-06T11:10:51.307Z,100484.63
2022-10-06T11:13:27.537Z,100491.81
2022-10-06T11:16:17.345Z,100476.41
2022-10-06T11:19:15.059Z,100487.66
2022-10-06T11:21:47.460Z,100475.00
2022-10-06T11:24:43.614Z,100471.16
2022-10-06T11:27:31.059Z,100468.91
2022-10-06T11:30:12.295Z,100476.22
2022-10-06T11:33:08.446Z,100477.19
2022-10-06T11:35:39.657Z,100470.38
2022-10-06T11:38:41.265Z,100466.84
2022-10-06T11:41:38.925Z,100461.09
2022-10-06T11:44:18.067Z,100452.78
2022-10-06T11:46:53.617Z,100460.78
2022-10-06T11:49:31.824Z,100458.19
2022-10-06T11:52:09.006Z,100462.06
2022-10-06T11:54:46.809Z,100460.28
2022-10-06T11:57:29.448Z,100458.72
2022-10-06T12:00:05.049Z,100467.31
2022-10-06T12:02:34.905Z,100460.63
2022-10-06T12:05:54.206Z,100456.81
2022-10-06T12:08:03.059Z,100456.22
2022-10-06T12:10:32.625Z,100451.34
2022-10-06T12:13:51.026Z,100456.22
2022-10-06T12:19:17.000Z,100449.69
2022-10-06T12:22:01.378Z,100444.53
2022-10-06T12:24:39.300Z,100443.03
2022-10-06T12:27:29.191Z,100445.91
2022-10-06T12:30:14.851Z,100438.06
2022-10-06T12:32:56.039Z,100436.94
2022-10-06T12:35:32.810Z,100434.28
2022-10-06T12:38:05.151Z,100437.47
2022-10-06T12:40:46.922Z,100433.63
2022-10-06T12:43:15.240Z,100434.28
2022-10-06T12:46:12.506Z,100429.78
2022-10-06T12:49:04.576Z,100431.00
2022-10-06T12:51:35.349Z,100426.22
2022-10-06T12:54:21.767Z,100423.28
2022-10-06T12:56:58.991Z,100427.31
2022-10-06T12:59:29.847Z,100421.19
2022-10-06T13:02:20.883Z,100420.41
2022-10-06T13:04:58.243Z,100417.69
2022-10-06T13:07:29.107Z,100416.91
2022-10-06T13:10:15.783Z,100419.25
2022-10-06T13:12:50.444Z,100415.53
2022-10-06T13:18:16.917Z,100424.34
2022-10-06T13:20:56.237Z,100410.41
2022-10-06T13:23:24.046Z,100414.69
2022-10-06T13:25:58.052Z,100413.47
2022-10-06T13:28:44.017Z,100410.91
2022-10-06T13:31:31.597Z,100414.66
2022-10-06T13:34:03.466Z,100406.56
2022-10-06T13:36:34.257Z,100404.41
2022-10-06T13:39:14.117Z,100407.44
2022-10-06T13:41:54.547Z,100400.72
2022-10-06T13:44:30.277Z,100406.06
2022-10-06T13:47:05.249Z,100398.75
2022-10-06T13:49:49.999Z,100400.19
2022-10-06T13:52:20.829Z,100403.81
2022-10-06T13:54:57.509Z,100406.22
2022-10-06T13:58:10.547Z,100406.47
2022-10-06T14:00:51.575Z,100411.22
2022-10-06T14:03:37.793Z,100411.41
2022-10-06T14:06:19.717Z,100410.72
2022-10-06T14:08:56.390Z,100405.25
2022-10-06T14:11:26.727Z,100409.63
2022-10-06T14:14:00.298Z,100422.69
2022-10-06T14:16:28.609Z,100417.97
2022-10-06T14:19:05.156Z,100420.50
2022-10-06T14:21:37.021Z,100422.88
2022-10-06T14:24:19.587Z,100427.88
2022-10-06T14:26:50.050Z,100436.75
2022-10-06T14:29:19.326Z,100435.03
2022-10-06T14:31:47.616Z,100440.13
2022-10-06T14:34:17.878Z,100436.87
2022-10-06T14:36:48.856Z,100436.44
2022-10-06T14:39:16.799Z,100438.59
2022-10-06T14:41:45.658Z,100434.44
2022-10-06T14:44:15.810Z,100439.22
2022-10-06T14:46:47.635Z,100444.47
2022-10-06T14:49:16.509Z,100446.00
2022-10-06T14:51:46.168Z,100441.91
2022-10-06T14:54:14.278Z,100439.03
2022-10-06T14:56:42.696Z,100443.84
2022-10-06T14:59:14.687Z,100449.25
2022-10-06T15:04:16.149Z,100451.97
2022-10-06T15:07:03.116Z,100461.38
2022-10-06T15:09:31.457Z,100453.84
2022-10-06T15:12:00.530Z,100455.75
2022-10-06T15:14:29.832Z,100450.22
2022-10-06T15:17:00.997Z,100447.00
2022-10-06T15:19:29.218Z,100456.22
2022-10-06T15:21:57.121Z,100455.91
2022-10-06T15:24:25.030Z,100458.31
2022-10-06T15:27:11.916Z,100461.59
2022-10-06T15:29:40.021Z,100464.78
2022-10-06T15:32:09.678Z,100470.34
2022-10-06T15:34:38.018Z,100462.72
2022-10-06T15:37:06.189Z,100466.84
2022-10-06T15:39:38.006Z,100471.91
2022-10-06T15:42:06.777Z,100468.31
2022-10-06T15:44:35.537Z,100470.97
2022-10-06T15:47:05.719Z,100465.28
2022-10-06T15:49:38.345Z,100474.03
2022-10-06T15:52:07.363Z,100474.56
2022-10-06T15:54:38.053Z,100482.06
2022-10-06T15:57:09.143Z,100486.66
2022-10-06T15:59:37.617Z,100490.34
2022-10-06T16:02:08.812Z,100491.88
2022-10-06T16:04:40.445Z,100489.38
2022-10-06T16:07:13.300Z,100490.38
2022-10-06T16:09:49.208Z,100490.34
2022-10-06T16:12:19.412Z,100506.19
2022-10-06T16:14:47.718Z,100504.78
2022-10-06T16:17:15.917Z,100505.31
2022-10-06T16:19:44.150Z,100509.66
2022-10-06T16:22:18.406Z,100507.69
2022-10-06T16:24:46.359Z,100508.09
2022-10-06T16:27:15.562Z,100508.16
2022-10-06T16:29:43.497Z,100510.75
2022-10-06T16:32:11.360Z,100514.87
2022-10-06T16:34:39.709Z,100511.63
2022-10-06T16:37:07.713Z,100505.00
2022-10-06T16:39:35.757Z,100514.84
2022-10-06T16:42:04.171Z,100518.19
2022-10-06T16:44:32.018Z,100519.97
2022-10-06T16:47:01.087Z,100520.53
2022-10-06T16:49:29.684Z,100523.03
2022-10-06T16:51:57.575Z,100525.69
2022-10-06T16:54:25.970Z,100523.53
2022-10-06T16:56:55.399Z,100520.53
2022-10-06T16:59:24.047Z,100524.72
2022-10-06T17:01:52.310Z,100531.47
2022-10-06T17:04:24.960Z,100527.44
2022-10-06T17:06:57.587Z,100532.44
2022-10-06T17:09:27.631Z,100537.50
2022-10-06T17:11:58.519Z,100536.88
2022-10-06T17:14:27.557Z,100529.22
2022-10-06T17:16:58.790Z,100540.97
2022-10-06T17:19:29.167Z,100540.41
2022-10-06T17:21:59.446Z,100540.97
2022-10-06T17:24:30.020Z,100539.56
2022-10-06T17:26:58.510Z,100543.88
2022-10-06T17:29:26.778Z,100541.81
2022-10-06T17:31:59.469Z,100553.94
2022-10-06T17:34:32.891Z,100552.22
2022-10-06T17:37:04.233Z,100553.19
2022-10-06T17:39:32.250Z,100544.38
2022-10-06T17:42:00.247Z,100550.59
2022-10-06T17:44:32.793Z,100546.94
2022-10-06T17:47:02.675Z,100539.69
2022-10-06T17:49:34.944Z,100540.84
2022-10-06T17:52:02.768Z,100545.66
2022-10-06T17:54:33.718Z,100537.69
2022-10-06T17:57:01.822Z,100544.22
2022-10-06T17:59:31.898Z,100544.28
2022-10-06T18:02:04.904Z,100543.00
2022-10-06T18:04:35.869Z,100542.31
2022-10-06T18:07:04.063Z,100541.03
2022-10-06T18:09:32.283Z,100533.38
2022-10-06T18:12:02.187Z,100533.81
2022-10-06T18:14:33.448Z,100527.97
2022-10-06T18:17:02.733Z,100530.28
2022-10-06T18:19:32.746Z,100532.97
2022-10-06T18:22:03.230Z,100540.00
2022-10-06T18:24:32.080Z,100533.81
2022-10-06T18:27:01.429Z,100544.81
2022-10-06T18:29:32.709Z,100545.81
2022-10-06T18:37:40.662Z,100540.72
2022-10-06T18:40:11.449Z,100553.19
2022-10-06T18:42:39.678Z,100553.34
2022-10-06T18:45:27.737Z,100560.44
2022-10-06T18:48:14.219Z,100566.06
2022-10-06T18:50:42.927Z,100571.91
2022-10-06T18:53:10.829Z,100570.25
2022-10-06T18:55:38.676Z,100576.34
2022-10-06T18:58:07.227Z,100573.88
2022-10-06T19:00:35.897Z,100575.87
2022-10-06T19:03:03.937Z,100565.97
2022-10-06T19:05:32.775Z,100572.53
2022-10-06T19:08:00.678Z,100580.78
2022-10-06T19:10:29.913Z,100578.06
2022-10-06T19:12:58.516Z,100574.22
2022-10-06T19:15:26.538Z,100571.56
2022-10-06T19:17:54.287Z,100565.09
2022-10-06T19:20:23.543Z,100565.03
2022-10-06T19:22:51.767Z,100570.41
2022-10-06T19:25:19.867Z,100580.88
2022-10-06T19:27:48.856Z,100578.25
2022-10-06T19:30:16.658Z,100580.91
2022-10-06T19:32:45.297Z,100577.44
2022-10-06T19:35:13.497Z,100578.66
2022-10-06T19:37:41.586Z,100577.13
2022-10-06T19:40:11.492Z,100581.88
2022-10-06T19:42:49.316Z,100588.66
2022-10-06T19:45:17.926Z,100587.84
2022-10-06T19:47:47.623Z,100584.34
2022-10-06T19:50:19.099Z,100584.44
2022-10-06T19:52:55.972Z,100581.84
2022-10-06T19:55:30.196Z,100586.25
2022-10-06T19:58:00.621Z,100580.91
2022-10-06T20:00:32.136Z,100595.94
2022-10-06T20:03:00.950Z,100593.59
2022-10-06T20:05:30.412Z,100596.31
2022-10-06T20:07:59.887Z,100597.78
2022-10-06T20:10:28.766Z,100601.16
2022-10-06T20:12:56.752Z,100600.19
2022-10-06T20:15:24.466Z,100605.59
2022-10-06T20:17:52.546Z,100598.75
2022-10-06T20:20:20.677Z,100595.56
2022-10-06T20:22:49.978Z,100594.78
2022-10-06T20:25:18.141Z,100608.31
2022-10-06T20:27:46.207Z,100599.50
2022-10-06T20:30:14.416Z,100594.44
2022-10-06T20:32:42.546Z,100590.03
2022-10-06T20:35:10.447Z,100592.03
2022-10-06T20:37:41.979Z,100592.84
2022-10-06T20:40:29.446Z,100604.13
2022-10-06T20:42:59.569Z,100603.41
2022-10-06T20:45:27.637Z,100613.34
2022-10-06T20:47:55.687Z,100606.03
2022-10-06T20:50:23.366Z,100614.13
2022-10-06T20:52:51.447Z,100608.59
2022-10-06T20:55:19.346Z,100607.66
2022-10-06T20:57:48.701Z,100615.78
2022-10-06T21:00:18.301Z,100608.72
2022-10-06T21:02:46.100Z,100614.66
2022-10-06T21:05:14.122Z,100611.28
2022-10-06T21:07:42.727Z,100610.37
2022-10-06T21:10:11.212Z,100602.63
2022-10-06T21:12:39.093Z,100612.19
2022-10-06T21:15:07.883Z,100607.19
2022-10-06T21:17:35.774Z,100607.84
2022-10-06T21:20:03.671Z,100607.78
2022-10-06T21:22:31.805Z,100606.09
2022-10-06T21:24:59.666Z,100613.13
2022-10-06T21:27:27.562Z,100609.59
2022-10-06T21:29:56.074Z,100607.84
2022-10-06T21:32:23.863Z,100617.53
2022-10-06T21:34:56.125Z,100611.44
2022-10-06T21:37:24.281Z,100608.84
2022-10-06T21:39:52.081Z,100607.84
2022-10-06T21:42:19.893Z,100600.84
2022-10-06T21:44:47.953Z,100607.19
2022-10-06T21:47:15.936Z,100608.91
2022-10-06T21:49:43.823Z,100604.50
2022-10-06T21:52:11.905Z,100600.88
2022-10-06T21:54:39.703Z,100612.19
2022-10-06T21:57:08.322Z,100606.31
2022-10-06T21:59:36.435Z,100605.38
2022-10-06T22:02:04.270Z,100615.97
2022-10-06T22:04:32.451Z,100618.44
2022-10-06T22:07:00.212Z,100619.41
2022-10-06T22:09:28.131Z,100611.56
2022-10-06T22:11:56.332Z,100617.53
2022-10-06T22:14:24.122Z,100621.16
2022-10-06T22:16:52.003Z,100619.41
2022-10-06T22:19:20.172Z,100620.28
2022-10-06T22:21:48.889Z,100614.97
2022-10-06T22:24:21.094Z,100615.78
2022-10-06T22:26:49.836Z,100616.63
2022-10-06T22:29:19.047Z,100613.28
2022-10-06T22:31:48.263Z,100616.81
2022-10-06T22:34:20.592Z,100621.97
2022-10-06T22:36:48.610Z,100610.69
2022-10-06T22:39:16.925Z,100603.72
2022-10-06T22:41:45.594Z,100609.81
2022-10-06T22:44:13.556Z,100609.81
2022-10-06T22:46:41.786Z,100604.56
2022-10-06T22:49:09.661Z,100595.81
2022-10-06T22:51:37.430Z,100596.75
2022-10-06T22:54:05.641Z,100596.75
2022-10-06T22:56:34.734Z,100597.63
2022-10-06T22:59:02.613Z,100591.53
2022-10-06T23:01:30.893Z,100591.53
2022-10-06T23:03:58.755Z,100584.56
2022-10-06T23:06:26.971Z,100587.16
2022-10-06T23:08:55.171Z,100586.31
2022-10-06T23:11:23.171Z,100588.94
2022-10-06T23:13:53.123Z,100593.31
2022-10-06T23:16:21.731Z,100587.19
2022-10-06T23:18:49.677Z,100587.19
2022-10-06T23:21:22.116Z,100581.94
2022-10-06T23:23:52.503Z,100588.94
2022-10-06T23:26:21.475Z,100582.81
2022-10-06T23:28:54.531Z,100578.47
2022-10-06T23:31:23.483Z,100581.09
2022-10-06T23:33:51.528Z,100581.97
2022-10-06T23:36:19.435Z,100584.53
2022-10-06T23:38:47.912Z,100577.56
2022-10-06T23:41:16.316Z,100582.84
2022-10-06T23:43:44.311Z,100581.09
2022-10-06T23:46:12.899Z,100574.94
2022-10-06T23:48:40.805Z,100573.19
2022-10-06T23:51:10.971Z,100563.59
2022-10-06T23:53:39.272Z,100573.25
2022-10-06T23:56:07.620Z,100574.09
2022-10-06T23:58:35.411Z,100570.62
